createdAt,value
2018-12-03T03:34:40.589Z,992.64
2018-12-03T03:35:50.645Z,992.7
2018-12-03T03:37:00.853Z,992.67
2018-12-03T03:38:10.915Z,992.6
2018-12-03T03:39:20.987Z,992.61
2018-12-03T03:40:31.204Z,992.66
2018-12-03T03:41:41.083Z,992.62
2018-12-03T03:42:50.884Z,992.57
2018-12-03T03:44:00.934Z,992.55
2018-12-03T03:45:11.008Z,992.54
2018-12-03T03:46:21.174Z,992.58
2018-12-03T03:47:31.249Z,992.61
2018-12-03T03:48:41.047Z,992.57
2018-12-03T03:49:51.106Z,992.65
2018-12-03T03:51:00.921Z,992.72
2018-12-03T03:52:10.985Z,992.62
2018-12-03T03:53:21.104Z,992.58
2018-12-03T03:54:31.166Z,992.62
2018-12-03T03:55:41.221Z,992.66
2018-12-03T03:56:51.570Z,992.63
2018-12-03T03:58:01.166Z,992.66
2018-12-03T03:59:10.719Z,992.67
2018-12-03T04:00:20.785Z,992.66
2018-12-03T04:01:30.842Z,992.64
2018-12-03T04:02:40.703Z,992.62
2018-12-03T04:03:50.852Z,992.67
2018-12-03T04:05:01.428Z,992.64
2018-12-03T04:06:11.522Z,992.62
2018-12-03T04:07:21.610Z,992.66
2018-12-03T04:08:31.416Z,992.67
2018-12-03T04:09:41.470Z,992.68
2018-12-03T04:10:51.545Z,992.63
2018-12-03T04:12:03.702Z,992.68
2018-12-03T04:13:13.220Z,992.75
2018-12-03T04:14:23.293Z,992.69
2018-12-03T04:15:33.429Z,992.72
2018-12-03T04:16:43.504Z,992.66
2018-12-03T04:17:53.568Z,992.64
2018-12-03T04:19:04.236Z,992.64
2018-12-03T04:20:14.043Z,992.65
2018-12-03T04:21:24.148Z,992.73
2018-12-03T04:22:34.203Z,992.68
2018-12-03T04:23:44.311Z,992.61
2018-12-03T04:24:54.375Z,992.59
2018-12-03T04:26:04.473Z,992.65
2018-12-03T04:27:14.526Z,992.69
2018-12-03T04:28:24.595Z,992.69
2018-12-03T04:29:34.699Z,992.68
2018-12-03T04:30:44.763Z,992.64
2018-12-03T04:31:54.839Z,992.65
2018-12-03T04:33:04.952Z,992.63
2018-12-03T04:34:15.007Z,992.66
2018-12-03T04:35:24.605Z,992.73
2018-12-03T04:36:34.688Z,992.66
2018-12-03T04:37:44.757Z,992.64
2018-12-03T04:38:54.883Z,992.61
2018-12-03T04:40:06.051Z,992.64
2018-12-03T04:41:16.141Z,992.69
2018-12-03T04:42:26.243Z,992.67
2018-12-03T04:43:36.308Z,992.69
2018-12-03T04:44:46.398Z,992.69
2018-12-03T04:45:56.470Z,992.73
2018-12-03T04:47:07.590Z,992.72
2018-12-03T04:48:17.641Z,992.73
2018-12-03T04:49:27.852Z,992.73
2018-12-03T04:50:37.768Z,992.65
2018-12-03T04:51:47.574Z,992.7
2018-12-03T04:52:57.630Z,992.71
2018-12-03T04:54:07.690Z,992.61
2018-12-03T04:55:18.068Z,992.65
2018-12-03T04:56:28.203Z,992.66
2018-12-03T04:57:38.284Z,992.62
2018-12-03T04:58:48.112Z,992.64
2018-12-03T04:59:58.182Z,992.58
2018-12-03T05:01:08.009Z,992.58
2018-12-03T05:02:17.835Z,992.58
2018-12-03T05:03:27.900Z,992.58
2018-12-03T05:04:37.732Z,992.61
2018-12-03T05:05:48.409Z,992.61
2018-12-03T05:06:57.986Z,992.59
2018-12-03T05:08:08.586Z,992.56
2018-12-03T05:09:18.652Z,992.57
2018-12-03T05:10:29.029Z,992.6
2018-12-03T05:11:39.094Z,992.61
2018-12-03T05:12:49.149Z,992.61
2018-12-03T05:13:59.426Z,992.58
2018-12-03T05:15:09.253Z,992.57
2018-12-03T05:16:19.131Z,992.49
2018-12-03T05:17:29.207Z,992.58
2018-12-03T05:18:39.263Z,992.45
2018-12-03T05:19:49.072Z,992.47
2018-12-03T05:20:59.141Z,992.65
2018-12-03T05:22:09.193Z,992.5
2018-12-03T05:23:19.283Z,992.46
2018-12-03T05:24:29.356Z,992.59
2018-12-03T05:25:39.421Z,992.56
2018-12-03T05:26:49.208Z,992.52
2018-12-03T05:27:59.381Z,992.46
2018-12-03T05:29:09.198Z,992.53
2018-12-03T05:30:19.028Z,992.49
2018-12-03T05:31:29.100Z,992.45
2018-12-03T05:32:39.228Z,992.51
2018-12-03T05:33:49.326Z,992.53
2018-12-03T05:34:58.866Z,992.48
2018-12-03T05:36:09.979Z,992.53
2018-12-03T05:37:19.780Z,992.48
2018-12-03T05:38:29.843Z,992.5
2018-12-03T05:39:39.946Z,992.52
2018-12-03T05:40:50.247Z,992.52
2018-12-03T05:42:00.046Z,992.41
2018-12-03T05:43:10.810Z,992.34
2018-12-03T05:44:20.886Z,992.49
2018-12-03T05:45:30.942Z,992.51
2018-12-03T05:46:41.015Z,992.37
2018-12-03T05:47:51.090Z,992.37
2018-12-03T05:49:00.895Z,992.5
2018-12-03T05:50:10.464Z,992.37
2018-12-03T05:51:20.486Z,992.48
2018-12-03T05:52:30.559Z,992.5
2018-12-03T05:53:40.856Z,992.42
2018-12-03T05:54:50.917Z,992.36
2018-12-03T05:56:00.988Z,992.64
2018-12-03T05:57:11.126Z,992.5
2018-12-03T05:58:21.416Z,992.43
2018-12-03T05:59:31.478Z,992.49
2018-12-03T06:00:41.534Z,992.54
2018-12-03T06:01:51.611Z,992.46
2018-12-03T06:03:01.668Z,992.48
2018-12-03T06:04:11.528Z,992.58
2018-12-03T06:05:21.599Z,992.49
2018-12-03T06:06:32.404Z,992.52
2018-12-03T06:07:42.479Z,992.57
2018-12-03T06:08:52.616Z,992.44
2018-12-03T06:10:04.074Z,992.53
2018-12-03T06:11:13.851Z,992.68
2018-12-03T06:12:24.155Z,992.47
2018-12-03T06:13:34.238Z,992.39
2018-12-03T06:14:44.400Z,992.53
2018-12-03T06:15:54.477Z,992.69
2018-12-03T06:17:06.610Z,992.57
2018-12-03T06:18:16.672Z,992.54
2018-12-03T06:19:26.781Z,992.64
2018-12-03T06:20:36.609Z,992.56
2018-12-03T06:21:46.417Z,992.39
2018-12-03T06:22:56.504Z,992.43
2018-12-03T06:24:06.571Z,992.59
2018-12-03T06:25:16.659Z,992.59
2018-12-03T06:26:26.801Z,992.55
2018-12-03T06:27:36.620Z,992.57
2018-12-03T06:28:46.722Z,992.65
2018-12-03T06:29:56.795Z,992.59
2018-12-03T06:31:06.861Z,992.63
2018-12-03T06:32:17.076Z,992.62
2018-12-03T06:33:27.170Z,992.56
2018-12-03T06:34:37.290Z,992.53
2018-12-03T06:35:47.093Z,992.58
2018-12-03T06:36:57.157Z,992.66
2018-12-03T06:38:07.266Z,992.68
2018-12-03T06:39:22.728Z,992.65
2018-12-03T06:40:32.796Z,992.65
2018-12-03T06:41:43.129Z,992.65
2018-12-03T06:42:53.190Z,992.66
2018-12-03T06:44:03.254Z,992.68
2018-12-03T06:45:13.058Z,992.66
2018-12-03T06:46:22.863Z,992.66
2018-12-03T06:47:32.785Z,992.61
2018-12-03T06:48:42.867Z,992.62
2018-12-03T06:49:52.983Z,992.61
2018-12-03T06:51:03.456Z,992.63
2018-12-03T06:52:13.271Z,992.59
2018-12-03T06:53:23.335Z,992.61
2018-12-03T06:54:33.423Z,992.58
2018-12-03T06:55:43.229Z,992.59
2018-12-03T06:56:53.514Z,992.66
2018-12-03T06:58:04.108Z,992.64
2018-12-03T06:59:13.930Z,992.62
2018-12-03T07:00:24.007Z,992.7
2018-12-03T07:01:33.811Z,992.7
2018-12-03T07:02:44.147Z,992.73
2018-12-03T07:03:54.227Z,992.67
2018-12-03T07:05:04.337Z,992.66
2018-12-03T07:06:14.409Z,992.71
2018-12-03T07:07:24.446Z,992.7
2018-12-03T07:08:34.246Z,992.68
2018-12-03T07:09:44.283Z,992.74
2018-12-03T07:10:55.626Z,992.71
2018-12-03T07:12:07.942Z,992.7
2018-12-03T07:13:18.244Z,992.7
2018-12-03T07:14:28.369Z,992.66
2018-12-03T07:15:38.433Z,992.7
2018-12-03T07:16:48.498Z,992.75
2018-12-03T07:17:58.562Z,992.75
2018-12-03T07:19:08.854Z,992.74
2018-12-03T07:20:19.173Z,992.68
2018-12-03T07:21:29.227Z,992.68
2018-12-03T07:22:39.023Z,992.74
2018-12-03T07:23:48.836Z,992.71
2018-12-03T07:24:58.908Z,992.72
2018-12-03T07:26:08.463Z,992.72
2018-12-03T07:27:19.732Z,992.78
2018-12-03T07:28:29.851Z,992.7
2018-12-03T07:29:39.908Z,992.65
2018-12-03T07:30:53.480Z,992.62
2018-12-03T07:32:03.614Z,992.63
2018-12-03T07:33:13.694Z,992.71
2018-12-03T07:34:23.737Z,992.61
2018-12-03T07:35:33.857Z,992.63
2018-12-03T07:36:43.156Z,992.6
2018-12-03T07:37:53.468Z,992.69
2018-12-03T07:39:03.550Z,992.61
2018-12-03T07:40:13.618Z,992.72
2018-12-03T07:41:23.690Z,992.67
2018-12-03T07:42:33.499Z,992.68
2018-12-03T07:43:43.335Z,992.7
2018-12-03T07:44:53.430Z,992.75
2018-12-03T07:46:03.686Z,992.66
2018-12-03T07:47:13.753Z,992.63
2018-12-03T07:48:23.570Z,992.63
2018-12-03T07:49:33.617Z,992.58
2018-12-03T07:50:43.429Z,992.62
2018-12-03T07:51:53.251Z,992.61
2018-12-03T07:53:03.812Z,992.58
2018-12-03T07:54:13.868Z,992.55
2018-12-03T07:55:23.681Z,992.58
2018-12-03T07:56:33.757Z,992.55
2018-12-03T07:57:43.611Z,992.61
2018-12-03T07:58:53.426Z,992.52
2018-12-03T08:00:03.956Z,992.59
2018-12-03T08:01:15.070Z,992.56
2018-12-03T08:02:25.158Z,992.55
2018-12-03T08:03:35.228Z,992.55
2018-12-03T08:04:45.297Z,992.56
2018-12-03T08:05:55.119Z,992.52
2018-12-03T08:07:04.929Z,992.63
2018-12-03T08:08:14.743Z,992.53
2018-12-03T08:09:24.827Z,992.6
2018-12-03T08:10:34.653Z,992.59
2018-12-03T08:11:44.722Z,992.66
2018-12-03T08:12:54.780Z,992.64
2018-12-03T08:14:04.853Z,992.62
2018-12-03T08:15:14.935Z,992.62
2018-12-03T08:16:25.007Z,992.61
2018-12-03T08:17:35.066Z,992.58
2018-12-03T08:18:45.157Z,992.53
2018-12-03T08:19:56.541Z,992.56
2018-12-03T08:21:06.473Z,992.62
2018-12-03T08:22:16.279Z,992.61
2018-12-03T08:23:26.098Z,992.61
2018-12-03T08:24:36.179Z,992.57
2018-12-03T08:25:46.241Z,992.59
2018-12-03T08:26:56.317Z,992.59
2018-12-03T08:28:06.399Z,992.6
2018-12-03T08:29:16.486Z,992.59
2018-12-03T08:30:26.573Z,992.62
2018-12-03T08:31:36.619Z,992.59
2018-12-03T08:32:46.442Z,992.59
2018-12-03T08:33:56.534Z,992.57
2018-12-03T08:35:06.856Z,992.57
2018-12-03T08:36:16.902Z,992.54
2018-12-03T08:37:26.971Z,992.61
2018-12-03T08:38:37.025Z,992.55
2018-12-03T08:39:47.094Z,992.62
2018-12-03T08:40:57.403Z,992.59
2018-12-03T08:42:07.690Z,992.57
2018-12-03T08:43:17.774Z,992.63
2018-12-03T08:44:27.844Z,992.63
2018-12-03T08:45:37.908Z,992.58
2018-12-03T08:46:48.212Z,992.66
2018-12-03T08:47:58.016Z,992.71
2018-12-03T08:49:11.059Z,992.67
2018-12-03T08:50:21.951Z,992.72
2018-12-03T08:51:32.325Z,992.65
2018-12-03T08:52:42.225Z,992.62
2018-12-03T08:53:52.040Z,992.64
2018-12-03T08:55:02.116Z,992.61
2018-12-03T08:56:12.424Z,992.63
2018-12-03T08:57:22.520Z,992.66
2018-12-03T08:58:33.021Z,992.7
2018-12-03T08:59:42.064Z,992.71
2018-12-03T09:00:52.160Z,992.73
2018-12-03T09:02:02.861Z,992.79
2018-12-03T09:03:12.919Z,992.75
2018-12-03T09:04:23.003Z,992.8
2018-12-03T09:05:32.818Z,992.82
2018-12-03T09:06:42.629Z,992.79
2018-12-03T09:07:52.698Z,992.75
2018-12-03T09:09:03.417Z,992.78
2018-12-03T09:10:13.502Z,992.76
2018-12-03T09:11:23.317Z,992.83
2018-12-03T09:12:33.392Z,992.77
2018-12-03T09:13:43.547Z,992.71
2018-12-03T09:14:53.362Z,992.78
2018-12-03T09:16:03.424Z,992.72
2018-12-03T09:17:13.529Z,992.79
2018-12-03T09:18:23.585Z,992.83
2018-12-03T09:19:33.122Z,992.79
2018-12-03T09:20:43.211Z,992.79
2018-12-03T09:21:53.273Z,992.78
2018-12-03T09:23:05.039Z,992.72
2018-12-03T09:24:15.100Z,992.77
2018-12-03T09:25:25.162Z,992.72
2018-12-03T09:26:34.965Z,992.74
2018-12-03T09:27:45.310Z,992.68
2018-12-03T09:28:55.117Z,992.69
2018-12-03T09:30:05.985Z,992.56
2018-12-03T09:31:16.048Z,992.6
2018-12-03T09:32:26.162Z,992.58
2018-12-03T09:33:36.293Z,992.51
2018-12-03T09:34:46.384Z,992.5
2018-12-03T09:35:56.518Z,992.48
2018-12-03T09:37:08.246Z,992.46
2018-12-03T09:38:18.041Z,992.48
2018-12-03T09:39:28.140Z,992.5
2018-12-03T09:40:38.263Z,992.51
2018-12-03T09:41:48.071Z,992.45
2018-12-03T09:42:58.130Z,992.5
2018-12-03T09:44:08.225Z,992.49
2018-12-03T09:45:18.514Z,992.52
2018-12-03T09:46:28.599Z,992.56
2018-12-03T09:47:38.778Z,992.59
2018-12-03T09:48:48.878Z,992.68
2018-12-03T09:49:58.704Z,992.67
2018-12-03T09:51:09.280Z,992.59
2018-12-03T09:52:19.334Z,992.59
2018-12-03T09:53:29.142Z,992.6
2018-12-03T09:54:39.231Z,992.63
2018-12-03T09:55:49.295Z,992.54
2018-12-03T09:56:59.363Z,992.51
2018-12-03T09:58:10.254Z,992.49
2018-12-03T09:59:20.163Z,992.63
2018-12-03T10:00:30.232Z,992.6
2018-12-03T10:01:40.036Z,992.5
2018-12-03T10:02:50.411Z,992.56
2018-12-03T10:04:00.527Z,992.61
2018-12-03T10:05:10.319Z,992.68
2018-12-03T10:06:20.391Z,992.54
2018-12-03T10:07:30.202Z,992.48
2018-12-03T10:08:40.269Z,992.54
2018-12-03T10:09:50.555Z,992.46
2018-12-03T10:11:00.899Z,992.54
2018-12-03T10:12:11.475Z,992.53
2018-12-03T10:13:26.703Z,992.53
2018-12-03T10:14:36.774Z,992.5
2018-12-03T10:15:46.589Z,992.61
2018-12-03T10:16:56.652Z,992.54
2018-12-03T10:18:08.570Z,992.47
2018-12-03T10:19:18.643Z,992.41
2018-12-03T10:20:28.761Z,992.5
2018-12-03T10:21:42.734Z,992.42
2018-12-03T10:22:52.992Z,992.46
2018-12-03T10:24:04.339Z,992.46
2018-12-03T10:25:14.417Z,992.51
2018-12-03T10:26:24.478Z,992.45
2018-12-03T10:27:34.545Z,992.39
2018-12-03T10:28:44.353Z,992.37
2018-12-03T10:29:54.685Z,992.31
2018-12-03T10:31:04.992Z,992.29
2018-12-03T10:32:15.313Z,992.27
2018-12-03T10:33:25.380Z,992.2
2018-12-03T10:34:35.559Z,992.25
2018-12-03T10:35:45.628Z,992.23
2018-12-03T10:36:55.451Z,992.3
2018-12-03T10:38:05.574Z,992.34
2018-12-03T10:39:15.861Z,992.33
2018-12-03T10:40:26.020Z,992.3
2018-12-03T10:41:35.570Z,992.32
2018-12-03T10:42:45.664Z,992.22
2018-12-03T10:43:55.713Z,992.28
2018-12-03T10:45:05.782Z,992.27
2018-12-03T10:46:15.600Z,992.31
2018-12-03T10:47:25.678Z,992.34
2018-12-03T10:48:35.503Z,992.47
2018-12-03T10:49:45.311Z,992.44
2018-12-03T10:50:55.366Z,992.4
2018-12-03T10:52:05.676Z,992.48
2018-12-03T10:53:15.485Z,992.47
2018-12-03T10:54:25.556Z,992.5
2018-12-03T10:55:35.646Z,992.52
2018-12-03T10:56:45.705Z,992.53
2018-12-03T10:57:55.789Z,992.46
2018-12-03T10:59:08.199Z,992.49
2018-12-03T11:00:18.245Z,992.53
2018-12-03T11:01:28.526Z,992.46
2018-12-03T11:02:38.543Z,992.45
2018-12-03T11:03:48.671Z,992.37
2018-12-03T11:04:58.750Z,992.41
2018-12-03T11:06:08.819Z,992.44
2018-12-03T11:07:18.925Z,992.38
2018-12-03T11:08:29.300Z,992.45
2018-12-03T11:09:39.534Z,992.43
2018-12-03T11:10:49.908Z,992.4
2018-12-03T11:11:59.712Z,992.37
2018-12-03T11:13:09.781Z,992.4
2018-12-03T11:14:19.090Z,992.28
2018-12-03T11:15:29.205Z,992.33
2018-12-03T11:16:39.276Z,992.39
2018-12-03T11:17:49.165Z,992.31
2018-12-03T11:18:59.236Z,992.23
2018-12-03T11:20:09.304Z,992.25
2018-12-03T11:21:19.115Z,992.18
2018-12-03T11:22:29.298Z,992.34
2018-12-03T11:23:39.350Z,992.21
2018-12-03T11:24:49.168Z,992.24
2018-12-03T11:25:59.044Z,992.33
2018-12-03T11:27:10.629Z,992.19
2018-12-03T11:28:20.694Z,992.21
2018-12-03T11:29:30.772Z,992.22
2018-12-03T11:30:40.832Z,992.03
2018-12-03T11:31:50.923Z,992.05
2018-12-03T11:33:00.978Z,992.03
2018-12-03T11:34:11.055Z,991.99
2018-12-03T11:35:21.147Z,992.12
2018-12-03T11:36:30.960Z,992.08
2018-12-03T11:37:41.028Z,992.1
2018-12-03T11:38:51.133Z,992.16
2018-12-03T11:40:01.191Z,992.1
2018-12-03T11:41:11.514Z,992.08
2018-12-03T11:42:21.478Z,992.06
2018-12-03T11:43:31.545Z,992.01
2018-12-03T11:44:41.611Z,992.05
2018-12-03T11:45:52.361Z,991.9
2018-12-03T11:47:02.199Z,991.9
2018-12-03T11:48:12.017Z,992.02
2018-12-03T11:49:21.968Z,991.9
2018-12-03T11:50:32.068Z,991.98
2018-12-03T11:51:42.130Z,991.8
2018-12-03T11:52:52.456Z,991.87
2018-12-03T11:55:27.160Z,991.85
2018-12-03T11:56:37.220Z,991.9
2018-12-03T11:57:47.644Z,991.95
2018-12-03T11:58:58.310Z,991.89
2018-12-03T12:00:08.815Z,991.97
2018-12-03T12:01:19.055Z,991.94
2018-12-03T12:02:29.132Z,991.93
2018-12-03T12:03:42.603Z,991.99
2018-12-03T12:04:53.051Z,991.91
2018-12-03T12:06:02.862Z,991.97
2018-12-03T12:07:12.915Z,992.01
2018-12-03T12:08:22.996Z,991.91
2018-12-03T12:09:33.112Z,991.94
2018-12-03T12:10:43.179Z,992.06
2018-12-03T12:11:53.048Z,991.94
2018-12-03T12:13:03.152Z,992.01
2018-12-03T12:14:13.228Z,992.11
2018-12-03T12:15:23.312Z,991.98
2018-12-03T12:16:33.170Z,991.96
2018-12-03T12:17:43.055Z,991.99
2018-12-03T12:18:53.371Z,991.87
2018-12-03T12:20:03.963Z,991.95
2018-12-03T12:21:14.023Z,991.88
2018-12-03T12:22:24.103Z,991.87
2018-12-03T12:23:34.158Z,991.83
2018-12-03T12:24:44.246Z,991.51
2018-12-03T12:25:54.092Z,991.88
2018-12-03T12:27:05.714Z,991.88
2018-12-03T12:28:15.802Z,991.51
2018-12-03T12:29:25.677Z,991.83
2018-12-03T12:30:35.742Z,991.68
2018-12-03T12:31:45.794Z,991.5
2018-12-03T12:32:55.633Z,991.68
2018-12-03T12:34:06.350Z,991.56
2018-12-03T12:35:16.424Z,991.52
2018-12-03T12:36:26.501Z,991.45
2018-12-03T12:37:36.308Z,991.48
2018-12-03T12:38:46.383Z,991.51
2018-12-03T12:39:56.466Z,991.55
2018-12-03T12:41:06.549Z,991.31
2018-12-03T12:42:16.610Z,991.2
2018-12-03T12:43:32.695Z,991.36
2018-12-03T12:44:42.497Z,991.34
2018-12-03T12:45:52.574Z,991.26
2018-12-03T12:47:02.238Z,991.2
2018-12-03T12:48:12.311Z,991.28
2018-12-03T12:49:22.139Z,991.34
2018-12-03T12:50:31.968Z,991.23
2018-12-03T12:51:42.493Z,991.24
2018-12-03T12:52:56.986Z,991.18
2018-12-03T12:54:06.808Z,991.21
2018-12-03T12:55:16.928Z,991.26
2018-12-03T12:56:26.794Z,991.27
2018-12-03T12:57:36.858Z,991.31
2018-12-03T12:58:46.992Z,991.29
2018-12-03T12:59:57.057Z,991.34
2018-12-03T13:01:07.374Z,991.32
2018-12-03T13:02:17.489Z,991.19
2018-12-03T13:03:27.639Z,991.34
2018-12-03T13:04:37.717Z,991.31
2018-12-03T13:05:47.777Z,991.21
2018-12-03T13:06:57.839Z,991.33
2018-12-03T13:08:11.122Z,991.3
2018-12-03T13:09:21.178Z,991.5
2018-12-03T13:10:31.298Z,991.34
2018-12-03T13:11:41.351Z,990.98
2018-12-03T13:12:51.421Z,991.51
2018-12-03T13:14:01.517Z,991.41
2018-12-03T13:15:11.642Z,990.95
2018-12-03T13:16:21.757Z,991.16
2018-12-03T13:17:31.560Z,991.38
2018-12-03T13:18:41.608Z,991.31
2018-12-03T13:19:51.472Z,991.43
2018-12-03T13:21:01.549Z,991.3
2018-12-03T13:22:11.438Z,991.29
2018-12-03T13:23:21.735Z,991.17
2018-12-03T13:24:31.664Z,991.37
2018-12-03T13:25:41.769Z,991.39
2018-12-03T13:26:51.606Z,991.31
2018-12-03T13:28:03.082Z,991.36
2018-12-03T13:29:12.892Z,991.33
2018-12-03T13:30:22.969Z,991.26
2018-12-03T13:31:33.045Z,991.24
2018-12-03T13:32:43.129Z,991.27
2018-12-03T13:33:53.451Z,991.21
2018-12-03T13:35:03.516Z,991.22
2018-12-03T13:36:13.722Z,991.21
2018-12-03T13:37:23.549Z,991.09
2018-12-03T13:38:33.371Z,991.03
2018-12-03T13:39:43.484Z,991.22
2018-12-03T13:40:53.305Z,991.22
2018-12-03T13:42:03.386Z,991.16
2018-12-03T13:43:13.469Z,991.2
2018-12-03T13:44:23.619Z,991.18
2018-12-03T13:45:33.624Z,991.17
2018-12-03T13:46:43.703Z,991.16
2018-12-03T13:47:53.262Z,991.2
2018-12-03T13:49:03.273Z,991.15
2018-12-03T13:50:13.115Z,991.17
2018-12-03T13:51:23.189Z,991.22
2018-12-03T13:52:33.472Z,991.15
2018-12-03T13:53:43.570Z,991.25
2018-12-03T13:54:53.625Z,991.29
2018-12-03T13:56:03.420Z,991.38
2018-12-03T13:57:13.531Z,991.5
2018-12-03T13:58:23.638Z,991.43
2018-12-03T13:59:33.700Z,991.46
2018-12-03T14:00:43.771Z,991.43
2018-12-03T14:01:53.820Z,991.44
2018-12-03T14:03:03.645Z,991.39
2018-12-03T14:04:13.731Z,991.34
2018-12-03T14:05:23.552Z,991.31
2018-12-03T14:06:33.615Z,991.28
2018-12-03T14:07:43.683Z,991.34
2018-12-03T14:08:53.872Z,991.32
2018-12-03T14:10:06.664Z,991.33
2018-12-03T14:11:18.268Z,991.28
2018-12-03T14:12:28.215Z,991.22
2018-12-03T14:13:38.094Z,991.24
2018-12-03T14:14:48.177Z,991.29
2018-12-03T14:15:57.722Z,991.26
2018-12-03T14:17:07.669Z,991.28
2018-12-03T14:18:17.475Z,991.29
2018-12-03T14:19:27.656Z,991.27
2018-12-03T14:20:37.719Z,991.35
2018-12-03T14:21:47.812Z,991.32
2018-12-03T14:22:57.877Z,991.34
2018-12-03T14:24:09.047Z,991.34
2018-12-03T14:25:19.235Z,991.37
2018-12-03T14:26:29.308Z,991.4
2018-12-03T14:27:39.493Z,991.43
2018-12-03T14:28:49.688Z,991.51
2018-12-03T14:29:59.743Z,991.53
2018-12-03T14:31:09.893Z,991.5
2018-12-03T14:32:19.957Z,991.61
2018-12-03T14:33:30.034Z,991.63
2018-12-03T14:34:40.091Z,991.56
2018-12-03T14:35:50.158Z,991.76
2018-12-03T14:37:00.358Z,991.72
2018-12-03T14:38:10.439Z,991.64
2018-12-03T14:39:20.310Z,991.78
2018-12-03T14:40:30.412Z,991.65
2018-12-03T14:41:40.485Z,991.78
2018-12-03T14:42:50.031Z,991.68
2018-12-03T14:44:00.101Z,991.75
2018-12-03T14:45:10.162Z,991.71
2018-12-03T14:46:20.351Z,991.66
2018-12-03T14:47:30.175Z,991.74
2018-12-03T14:48:40.254Z,991.75
2018-12-03T14:49:50.308Z,991.87
2018-12-03T14:51:00.680Z,991.9
2018-12-03T14:52:10.747Z,991.76
2018-12-03T14:53:20.823Z,991.92
2018-12-03T14:54:30.949Z,991.98
2018-12-03T14:55:41.012Z,991.86
2018-12-03T14:56:51.077Z,991.95
2018-12-03T14:58:01.189Z,991.99
2018-12-03T14:59:10.772Z,991.94
2018-12-03T15:00:21.081Z,991.86
2018-12-03T15:01:31.212Z,991.86
2018-12-03T15:02:41.286Z,991.83
2018-12-03T15:03:51.384Z,991.78
2018-12-03T15:05:01.541Z,991.81
2018-12-03T15:06:11.649Z,991.84
2018-12-03T15:07:21.724Z,991.82
2018-12-03T15:08:31.801Z,991.87
2018-12-03T15:09:41.873Z,991.83
2018-12-03T15:10:51.977Z,991.86
2018-12-03T15:12:01.788Z,991.84
2018-12-03T15:13:11.912Z,991.86
2018-12-03T15:14:21.708Z,991.9
2018-12-03T15:15:31.519Z,991.91
2018-12-03T15:16:41.633Z,991.93
2018-12-03T15:17:51.680Z,991.94
2018-12-03T15:19:01.748Z,991.92
2018-12-03T15:20:16.702Z,991.87
2018-12-03T15:21:26.512Z,991.82
2018-12-03T15:22:36.590Z,991.85
2018-12-03T15:23:46.643Z,991.85
2018-12-03T15:24:56.713Z,991.81
2018-12-03T15:26:06.770Z,991.89
2018-12-03T15:27:16.614Z,991.86
2018-12-03T15:28:26.680Z,991.87
2018-12-03T15:29:36.753Z,991.98
2018-12-03T15:30:46.807Z,991.99
2018-12-03T15:31:56.619Z,991.98
2018-12-03T15:33:06.691Z,991.91
2018-12-03T15:34:16.779Z,991.96
2018-12-03T15:35:26.850Z,991.98
2018-12-03T15:36:36.910Z,991.91
2018-12-03T15:37:47.822Z,992.03
2018-12-03T15:38:57.868Z,991.92
2018-12-03T15:40:08.026Z,991.88
2018-12-03T15:41:17.823Z,991.91
2018-12-03T15:42:27.928Z,991.9
2018-12-03T15:43:37.470Z,991.9
2018-12-03T15:44:47.341Z,991.88
2018-12-03T15:45:57.139Z,991.97
2018-12-03T15:47:07.221Z,991.93
2018-12-03T15:48:17.276Z,991.9
2018-12-03T15:49:27.086Z,991.99
2018-12-03T15:50:36.889Z,992.02
2018-12-03T15:51:46.940Z,991.91
2018-12-03T15:52:57.032Z,991.89
2018-12-03T15:54:07.105Z,991.93
2018-12-03T15:55:17.180Z,991.9
2018-12-03T15:56:27.272Z,991.95
2018-12-03T15:57:37.334Z,991.93
2018-12-03T15:58:47.152Z,991.94
2018-12-03T15:59:56.970Z,991.95
2018-12-03T16:01:14.277Z,991.91
2018-12-03T16:02:24.676Z,991.93
2018-12-03T16:03:34.290Z,991.9
2018-12-03T16:04:44.342Z,991.91
2018-12-03T16:05:54.145Z,991.91
2018-12-03T16:07:04.228Z,991.91
2018-12-03T16:08:14.288Z,991.89
2018-12-03T16:09:24.368Z,991.93
2018-12-03T16:10:34.318Z,991.94
2018-12-03T16:11:44.387Z,991.96
2018-12-03T16:12:54.451Z,991.99
2018-12-03T16:14:04.526Z,991.95
2018-12-03T16:15:14.604Z,991.9
2018-12-03T16:16:24.675Z,991.93
2018-12-03T16:17:34.742Z,991.99
2018-12-03T16:18:44.532Z,992.01
2018-12-03T16:19:54.128Z,992.02
2018-12-03T16:21:03.943Z,992.04
2018-12-03T16:22:13.999Z,992.12
2018-12-03T16:23:23.824Z,992.12
2018-12-03T16:24:33.905Z,992.08
2018-12-03T16:25:44.089Z,992.08
2018-12-03T16:26:54.186Z,992.07
2018-12-03T16:28:04.239Z,992.01
2018-12-03T16:29:14.309Z,991.93
2018-12-03T16:30:24.368Z,991.87
2018-12-03T16:31:34.456Z,991.92
2018-12-03T16:32:44.534Z,991.85
2018-12-03T16:33:54.388Z,991.87
2018-12-03T16:35:04.212Z,991.89
2018-12-03T16:36:14.311Z,991.91
2018-12-03T16:37:24.428Z,991.93
2018-12-03T16:38:34.512Z,991.84
2018-12-03T16:39:44.575Z,991.77
2018-12-03T16:40:54.709Z,991.77
2018-12-03T16:42:04.781Z,991.75
2018-12-03T16:43:14.903Z,991.82
2018-12-03T16:44:25.031Z,991.79
2018-12-03T16:45:35.091Z,991.77
2018-12-03T16:46:45.153Z,991.82
2018-12-03T16:47:55.230Z,991.74
2018-12-03T16:49:06.378Z,991.73
2018-12-03T16:50:16.225Z,991.74
2018-12-03T16:51:27.186Z,991.74
2018-12-03T16:52:37.286Z,991.77
2018-12-03T16:53:47.392Z,991.81
2018-12-03T16:54:57.470Z,991.74
2018-12-03T16:56:07.559Z,991.74
2018-12-03T16:57:17.640Z,991.7
2018-12-03T16:58:27.790Z,991.7
2018-12-03T16:59:37.888Z,991.67
2018-12-03T17:00:47.725Z,991.68
2018-12-03T17:01:57.553Z,991.76
2018-12-03T17:03:07.630Z,991.82
2018-12-03T17:04:17.708Z,991.82
2018-12-03T17:05:27.564Z,991.82
2018-12-03T17:06:37.657Z,991.84
2018-12-03T17:07:47.702Z,991.84
2018-12-03T17:08:57.757Z,991.85
2018-12-03T17:10:07.870Z,991.78
2018-12-03T17:11:17.986Z,991.81
2018-12-03T17:12:28.036Z,991.72
2018-12-03T17:13:37.841Z,991.74
2018-12-03T17:14:47.883Z,991.74
2018-12-03T17:15:57.991Z,991.69
2018-12-03T17:17:08.102Z,991.7
2018-12-03T17:18:17.906Z,991.72
2018-12-03T17:19:27.713Z,991.76
2018-12-03T17:20:37.771Z,991.72
2018-12-03T17:21:48.874Z,991.73
2018-12-03T17:22:58.705Z,991.73
2018-12-03T17:24:08.766Z,991.84
2018-12-03T17:25:18.829Z,991.78
2018-12-03T17:26:28.895Z,991.77
2018-12-03T17:27:38.962Z,991.83
2018-12-03T17:28:48.770Z,991.76
2018-12-03T17:29:58.829Z,991.75
2018-12-03T17:31:08.894Z,991.67
2018-12-03T17:32:18.969Z,991.58
2018-12-03T17:33:29.045Z,991.53
2018-12-03T17:34:39.120Z,991.56
2018-12-03T17:35:54.263Z,991.63
2018-12-03T17:37:04.397Z,991.62
2018-12-03T17:38:14.428Z,991.64
2018-12-03T17:39:24.274Z,991.65
2018-12-03T17:40:34.367Z,991.64
2018-12-03T17:41:44.479Z,991.64
2018-12-03T17:42:54.570Z,991.62
2018-12-03T17:44:04.645Z,991.59
2018-12-03T17:45:14.736Z,991.51
2018-12-03T17:46:24.811Z,991.49
2018-12-03T17:47:34.886Z,991.39
2018-12-03T17:48:44.938Z,991.41
2018-12-03T17:49:54.994Z,991.49
2018-12-03T17:51:05.062Z,991.46
2018-12-03T17:52:15.112Z,991.49
2018-12-03T17:53:25.697Z,991.51
2018-12-03T17:54:35.813Z,991.56
2018-12-03T17:55:45.849Z,991.58
2018-12-03T17:56:55.932Z,991.63
2018-12-03T17:58:06.022Z,991.7
2018-12-03T17:59:16.149Z,991.69
2018-12-03T18:00:26.231Z,991.57
2018-12-03T18:01:36.306Z,991.54
2018-12-03T18:02:46.381Z,991.57
2018-12-03T18:03:56.429Z,991.57
2018-12-03T18:05:06.243Z,991.54
2018-12-03T18:06:17.100Z,991.53
2018-12-03T18:07:27.292Z,991.56
2018-12-03T18:08:37.364Z,991.58
2018-12-03T18:09:47.656Z,991.57
2018-12-03T18:10:57.714Z,991.53
2018-12-03T18:12:07.787Z,991.55
2018-12-03T18:13:17.954Z,991.53